sensor_id;sensor_type;location;lat;lon;timestamp;pressure;altitude;pressure_sealevel;temperature;humidity
20043;BME280;10182;52.896;6.496;2023-08-08T00:03:15;101172.19;;;13.05;100.00
20043;BME280;10182;52.896;6.496;2023-08-08T00:08:18;101165.19;;;13.04;100.00
20043;BME280;10182;52.896;6.496;2023-08-08T00:13:20;101159.88;;;13.04;100.00
20043;BME280;10182;52.896;6.496;2023-08-08T00:18:21;101166.03;;;13.04;100.00
20043;BME280;10182;52.896;6.496;2023-08-08T00:23:24;101159.91;;;13.02;100.00
20043;BME280;10182;52.896;6.496;2023-08-08T00:28:26;101158.97;;;13.03;100.00
20043;BME280;10182;52.896;6.496;2023-08-08T00:33:28;101159.16;;;13.00;100.00
20043;BME280;10182;52.896;6.496;2023-08-08T00:38:31;101153.03;;;12.98;100.00
20043;BME280;10182;52.896;6.496;2023-08-08T00:43:32;101154.75;;;12.99;100.00
20043;BME280;10182;52.896;6.496;2023-08-08T00:48:34;101152.44;;;12.93;100.00
20043;BME280;10182;52.896;6.496;2023-08-08T00:53:37;101142.88;;;12.89;100.00
20043;BME280;10182;52.896;6.496;2023-08-08T00:58:39;101149.22;;;12.86;100.00
20043;BME280;10182;52.896;6.496;2023-08-08T01:03:41;101147.31;;;12.89;100.00
20043;BME280;10182;52.896;6.496;2023-08-08T01:08:48;101133.25;;;12.86;100.00
20043;BME280;10182;52.896;6.496;2023-08-08T01:13:54;101127.78;;;12.90;100.00
20043;BME280;10182;52.896;6.496;2023-08-08T01:18:56;101118.25;;;12.85;100.00
20043;BME280;10182;52.896;6.496;2023-08-08T01:24:13;101136.00;;;12.85;100.00
20043;BME280;10182;52.896;6.496;2023-08-08T01:29:14;101132.53;;;12.83;100.00
20043;BME280;10182;52.896;6.496;2023-08-08T01:34:16;101123.63;;;12.84;100.00
20043;BME280;10182;52.896;6.496;2023-08-08T01:39:22;101120.25;;;12.80;100.00
20043;BME280;10182;52.896;6.496;2023-08-08T01:44:27;101116.75;;;12.80;100.00
20043;BME280;10182;52.896;6.496;2023-08-08T01:49:29;101119.50;;;12.78;100.00
20043;BME280;10182;52.896;6.496;2023-08-08T01:54:34;101114.25;;;12.77;100.00
20043;BME280;10182;52.896;6.496;2023-08-08T01:59:35;101106.41;;;12.74;100.00
20043;BME280;10182;52.896;6.496;2023-08-08T02:04:37;101107.28;;;12.74;100.00
20043;BME280;10182;52.896;6.496;2023-08-08T02:09:40;101105.66;;;12.72;100.00
20043;BME280;10182;52.896;6.496;2023-08-08T02:14:42;101104.00;;;12.69;100.00
20043;BME280;10182;52.896;6.496;2023-08-08T02:19:43;101103.00;;;12.72;100.00
20043;BME280;10182;52.896;6.496;2023-08-08T02:24:46;101093.19;;;12.72;100.00
20043;BME280;10182;52.896;6.496;2023-08-08T02:29:48;101077.09;;;12.75;100.00
20043;BME280;10182;52.896;6.496;2023-08-08T02:34:49;101078.66;;;12.79;100.00
20043;BME280;10182;52.896;6.496;2023-08-08T02:39:53;101077.81;;;12.79;100.00
20043;BME280;10182;52.896;6.496;2023-08-08T02:44:54;101066.94;;;12.83;100.00
20043;BME280;10182;52.896;6.496;2023-08-08T02:49:56;101069.59;;;12.83;100.00
20043;BME280;10182;52.896;6.496;2023-08-08T02:54:59;101058.94;;;12.83;100.00
20043;BME280;10182;52.896;6.496;2023-08-08T03:00:02;101064.22;;;12.85;100.00
20043;BME280;10182;52.896;6.496;2023-08-08T03:05:05;101059.03;;;12.82;100.00
20043;BME280;10182;52.896;6.496;2023-08-08T03:10:09;101067.91;;;12.82;100.00
20043;BME280;10182;52.896;6.496;2023-08-08T03:15:11;101067.34;;;12.76;100.00
20043;BME280;10182;52.896;6.496;2023-08-08T03:20:12;101063.97;;;12.72;100.00
20043;BME280;10182;52.896;6.496;2023-08-08T03:25:16;101058.97;;;12.66;100.00
20043;BME280;10182;52.896;6.496;2023-08-08T03:30:17;101063.41;;;12.65;100.00
20043;BME280;10182;52.896;6.496;2023-08-08T03:35:19;101051.31;;;12.60;100.00
20043;BME280;10182;52.896;6.496;2023-08-08T03:40:22;101042.69;;;12.55;100.00
20043;BME280;10182;52.896;6.496;2023-08-08T03:45:24;101049.00;;;12.52;100.00
20043;BME280;10182;52.896;6.496;2023-08-08T03:50:25;101048.31;;;12.48;100.00
20043;BME280;10182;52.896;6.496;2023-08-08T03:55:28;101044.88;;;12.46;100.00
20043;BME280;10182;52.896;6.496;2023-08-08T04:00:30;101038.78;;;12.44;100.00
20043;BME280;10182;52.896;6.496;2023-08-08T04:05:32;101033.56;;;12.43;100.00
20043;BME280;10182;52.896;6.496;2023-08-08T04:10:35;101030.09;;;12.41;100.00
20043;BME280;10182;52.896;6.496;2023-08-08T04:15:36;101025.72;;;12.40;100.00
20043;BME280;10182;52.896;6.496;2023-08-08T04:20:38;101004.56;;;12.38;100.00
20043;BME280;10182;52.896;6.496;2023-08-08T04:25:41;101014.25;;;12.39;100.00
20043;BME280;10182;52.896;6.496;2023-08-08T04:30:43;101008.84;;;12.41;100.00
20043;BME280;10182;52.896;6.496;2023-08-08T04:35:44;101009.41;;;12.47;100.00
20043;BME280;10182;52.896;6.496;2023-08-08T04:40:49;101008.16;;;12.55;100.00
20043;BME280;10182;52.896;6.496;2023-08-08T04:45:51;100996.28;;;12.62;100.00
20043;BME280;10182;52.896;6.496;2023-08-08T04:50:52;100995.97;;;12.68;100.00
20043;BME280;10182;52.896;6.496;2023-08-08T04:55:55;100996.75;;;12.70;100.00
20043;BME280;10182;52.896;6.496;2023-08-08T05:00:57;100998.88;;;12.81;100.00
20043;BME280;10182;52.896;6.496;2023-08-08T05:05:59;100992.47;;;13.01;100.00
20043;BME280;10182;52.896;6.496;2023-08-08T05:11:02;100981.56;;;13.23;100.00
20043;BME280;10182;52.896;6.496;2023-08-08T05:16:04;100974.34;;;13.59;100.00
20043;BME280;10182;52.896;6.496;2023-08-08T05:21:06;100976.16;;;13.90;100.00
20043;BME280;10182;52.896;6.496;2023-08-08T05:26:09;100976.28;;;14.03;100.00
20043;BME280;10182;52.896;6.496;2023-08-08T05:31:11;100971.66;;;13.91;100.00
20043;BME280;10182;52.896;6.496;2023-08-08T05:36:12;100969.78;;;13.77;100.00
20043;BME280;10182;52.896;6.496;2023-08-08T05:41:16;100973.06;;;13.66;100.00
20043;BME280;10182;52.896;6.496;2023-08-08T05:46:17;100978.19;;;13.53;100.00
20043;BME280;10182;52.896;6.496;2023-08-08T05:51:19;100968.34;;;13.55;100.00
20043;BME280;10182;52.896;6.496;2023-08-08T05:56:22;100972.88;;;13.53;100.00
20043;BME280;10182;52.896;6.496;2023-08-08T06:01:24;100977.00;;;13.75;100.00
20043;BME280;10182;52.896;6.496;2023-08-08T06:06:25;100979.72;;;14.05;100.00
20043;BME280;10182;52.896;6.496;2023-08-08T06:11:28;100971.88;;;14.18;100.00
20043;BME280;10182;52.896;6.496;2023-08-08T06:16:30;100977.00;;;14.37;100.00
20043;BME280;10182;52.896;6.496;2023-08-08T06:21:32;100977.59;;;14.56;100.00
20043;BME280;10182;52.896;6.496;2023-08-08T06:26:35;100987.97;;;14.63;100.00
20043;BME280;10182;52.896;6.496;2023-08-08T06:31:36;100971.22;;;14.75;100.00
20043;BME280;10182;52.896;6.496;2023-08-08T06:36:38;100971.59;;;14.83;100.00
20043;BME280;10182;52.896;6.496;2023-08-08T06:41:41;100972.19;;;15.03;100.00
20043;BME280;10182;52.896;6.496;2023-08-08T06:46:43;100961.44;;;15.19;100.00
20043;BME280;10182;52.896;6.496;2023-08-08T06:51:44;100952.13;;;15.39;100.00
20043;BME280;10182;52.896;6.496;2023-08-08T06:56:47;100957.09;;;15.45;100.00
20043;BME280;10182;52.896;6.496;2023-08-08T07:01:49;100960.97;;;15.54;100.00
20043;BME280;10182;52.896;6.496;2023-08-08T07:06:51;100959.66;;;15.61;100.00
20043;BME280;10182;52.896;6.496;2023-08-08T07:11:54;100960.47;;;15.76;100.00
20043;BME280;10182;52.896;6.496;2023-08-08T07:16:56;100961.91;;;15.82;100.00
20043;BME280;10182;52.896;6.496;2023-08-08T07:21:58;100961.22;;;15.93;100.00
20043;BME280;10182;52.896;6.496;2023-08-08T07:27:02;100942.66;;;16.04;100.00
20043;BME280;10182;52.896;6.496;2023-08-08T07:32:04;100941.00;;;16.29;100.00
20043;BME280;10182;52.896;6.496;2023-08-08T07:37:06;100935.38;;;16.06;100.00
20043;BME280;10182;52.896;6.496;2023-08-08T07:42:09;100929.75;;;16.23;100.00
20043;BME280;10182;52.896;6.496;2023-08-08T07:47:11;100942.97;;;16.52;100.00
20043;BME280;10182;52.896;6.496;2023-08-08T07:52:12;100936.53;;;16.42;100.00
20043;BME280;10182;52.896;6.496;2023-08-08T07:57:16;100949.09;;;16.14;100.00
20043;BME280;10182;52.896;6.496;2023-08-08T08:02:17;100945.72;;;15.98;100.00
20043;BME280;10182;52.896;6.496;2023-08-08T08:07:19;100952.06;;;16.10;100.00
20043;BME280;10182;52.896;6.496;2023-08-08T08:12:22;100946.00;;;16.20;100.00
20043;BME280;10182;52.896;6.496;2023-08-08T08:17:24;100937.94;;;16.35;100.00
20043;BME280;10182;52.896;6.496;2023-08-08T08:22:28;100936.50;;;16.16;100.00
20043;BME280;10182;52.896;6.496;2023-08-08T08:27:31;100945.41;;;16.30;100.00
20043;BME280;10182;52.896;6.496;2023-08-08T08:32:33;100956.50;;;16.23;100.00
20043;BME280;10182;52.896;6.496;2023-08-08T08:37:35;100940.78;;;16.32;100.00
20043;BME280;10182;52.896;6.496;2023-08-08T08:42:40;100946.72;;;16.63;100.00
20043;BME280;10182;52.896;6.496;2023-08-08T08:47:45;100943.28;;;16.35;100.00
20043;BME280;10182;52.896;6.496;2023-08-08T08:52:47;100940.28;;;16.39;100.00
20043;BME280;10182;52.896;6.496;2023-08-08T08:57:51;100945.56;;;16.54;100.00
20043;BME280;10182;52.896;6.496;2023-08-08T09:02:52;100951.97;;;16.64;100.00
20043;BME280;10182;52.896;6.496;2023-08-08T09:07:55;100937.41;;;16.68;100.00
20043;BME280;10182;52.896;6.496;2023-08-08T09:12:58;100947.47;;;16.65;100.00
20043;BME280;10182;52.896;6.496;2023-08-08T09:18:00;100936.56;;;16.68;100.00
20043;BME280;10182;52.896;6.496;2023-08-08T09:23:02;100946.28;;;16.43;100.00
20043;BME280;10182;52.896;6.496;2023-08-08T09:28:06;100948.63;;;15.53;100.00
20043;BME280;10182;52.896;6.496;2023-08-08T09:33:08;100952.97;;;15.54;100.00
20043;BME280;10182;52.896;6.496;2023-08-08T09:38:09;100957.69;;;15.36;100.00
20043;BME280;10182;52.896;6.496;2023-08-08T09:43:13;100964.34;;;15.43;100.00
20043;BME280;10182;52.896;6.496;2023-08-08T09:48:15;100957.59;;;15.79;100.00
20043;BME280;10182;52.896;6.496;2023-08-08T09:53:18;100942.28;;;15.83;100.00
20043;BME280;10182;52.896;6.496;2023-08-08T09:58:22;100944.94;;;15.83;100.00
20043;BME280;10182;52.896;6.496;2023-08-08T10:03:25;100947.19;;;15.74;100.00
20043;BME280;10182;52.896;6.496;2023-08-08T10:08:26;100938.50;;;16.13;100.00
20043;BME280;10182;52.896;6.496;2023-08-08T10:13:29;100941.63;;;16.85;100.00
20043;BME280;10182;52.896;6.496;2023-08-08T10:18:31;100945.47;;;17.20;100.00
20043;BME280;10182;52.896;6.496;2023-08-08T10:23:36;100935.19;;;17.14;100.00
20043;BME280;10182;52.896;6.496;2023-08-08T10:28:40;100936.97;;;17.39;100.00
20043;BME280;10182;52.896;6.496;2023-08-08T10:33:42;100927.84;;;17.66;100.00
20043;BME280;10182;52.896;6.496;2023-08-08T10:38:46;100932.13;;;17.68;100.00
20043;BME280;10182;52.896;6.496;2023-08-08T10:43:52;100926.69;;;17.33;100.00
20043;BME280;10182;52.896;6.496;2023-08-08T10:48:56;100946.75;;;17.01;100.00
20043;BME280;10182;52.896;6.496;2023-08-08T10:54:03;100936.31;;;17.48;100.00
20043;BME280;10182;52.896;6.496;2023-08-08T10:59:19;100932.78;;;18.20;100.00
20043;BME280;10182;52.896;6.496;2023-08-08T11:04:23;100924.13;;;18.75;100.00
20043;BME280;10182;52.896;6.496;2023-08-08T11:09:26;100938.63;;;18.61;100.00
20043;BME280;10182;52.896;6.496;2023-08-08T11:14:32;100931.41;;;18.15;100.00
20043;BME280;10182;52.896;6.496;2023-08-08T11:19:39;100932.78;;;18.20;100.00
20043;BME280;10182;52.896;6.496;2023-08-08T11:24:41;100953.63;;;17.80;100.00
20043;BME280;10182;52.896;6.496;2023-08-08T11:29:50;100951.53;;;17.35;100.00
20043;BME280;10182;52.896;6.496;2023-08-08T11:34:52;100924.00;;;17.46;100.00
20043;BME280;10182;52.896;6.496;2023-08-08T11:39:54;100939.16;;;17.82;100.00
20043;BME280;10182;52.896;6.496;2023-08-08T11:44:57;100948.78;;;17.98;100.00
20043;BME280;10182;52.896;6.496;2023-08-08T11:49:59;100958.56;;;17.36;100.00
20043;BME280;10182;52.896;6.496;2023-08-08T11:55:00;100947.31;;;17.81;100.00
20043;BME280;10182;52.896;6.496;2023-08-08T12:00:06;100939.53;;;18.37;100.00
20043;BME280;10182;52.896;6.496;2023-08-08T12:05:09;100938.59;;;17.90;100.00
20043;BME280;10182;52.896;6.496;2023-08-08T12:10:15;100949.88;;;17.58;100.00
20043;BME280;10182;52.896;6.496;2023-08-08T12:15:19;100956.91;;;17.22;100.00
20043;BME280;10182;52.896;6.496;2023-08-08T12:20:22;100950.66;;;17.34;100.00
20043;BME280;10182;52.896;6.496;2023-08-08T12:25:24;100953.34;;;17.71;100.00
20043;BME280;10182;52.896;6.496;2023-08-08T12:30:27;100954.78;;;17.88;100.00
20043;BME280;10182;52.896;6.496;2023-08-08T12:35:29;100957.78;;;17.59;100.00
20043;BME280;10182;52.896;6.496;2023-08-08T12:40:30;100971.53;;;17.42;100.00
20043;BME280;10182;52.896;6.496;2023-08-08T12:45:33;100959.13;;;18.02;100.00
20043;BME280;10182;52.896;6.496;2023-08-08T12:50:35;100961.31;;;18.33;100.00
20043;BME280;10182;52.896;6.496;2023-08-08T12:55:37;100966.88;;;18.89;100.00
20043;BME280;10182;52.896;6.496;2023-08-08T13:00:41;100955.50;;;19.31;100.00
20043;BME280;10182;52.896;6.496;2023-08-08T13:05:42;100992.63;;;18.56;100.00
20043;BME280;10182;52.896;6.496;2023-08-08T13:10:44;100968.69;;;18.18;100.00
20043;BME280;10182;52.896;6.496;2023-08-08T13:15:47;100979.38;;;18.31;100.00
20043;BME280;10182;52.896;6.496;2023-08-08T13:20:49;100976.94;;;18.27;100.00
20043;BME280;10182;52.896;6.496;2023-08-08T13:25:50;100977.56;;;18.42;100.00
20043;BME280;10182;52.896;6.496;2023-08-08T13:30:53;100982.53;;;18.71;100.00
20043;BME280;10182;52.896;6.496;2023-08-08T13:35:55;100995.31;;;19.03;100.00
20043;BME280;10182;52.896;6.496;2023-08-08T13:40:57;100983.84;;;18.30;100.00
20043;BME280;10182;52.896;6.496;2023-08-08T13:46:01;100981.53;;;18.61;100.00
20043;BME280;10182;52.896;6.496;2023-08-08T13:51:07;101001.78;;;18.05;100.00
20043;BME280;10182;52.896;6.496;2023-08-08T13:56:09;101000.59;;;18.09;100.00
20043;BME280;10182;52.896;6.496;2023-08-08T14:01:12;101011.19;;;18.11;100.00
20043;BME280;10182;52.896;6.496;2023-08-08T14:06:14;101000.56;;;17.85;100.00
20043;BME280;10182;52.896;6.496;2023-08-08T14:11:16;101005.66;;;17.64;100.00
20043;BME280;10182;52.896;6.496;2023-08-08T14:16:19;101007.91;;;18.32;100.00
20043;BME280;10182;52.896;6.496;2023-08-08T14:21:20;100998.09;;;18.19;100.00
20043;BME280;10182;52.896;6.496;2023-08-08T14:26:22;101002.69;;;18.41;100.00
20043;BME280;10182;52.896;6.496;2023-08-08T14:31:25;100999.91;;;18.43;100.00
20043;BME280;10182;52.896;6.496;2023-08-08T14:36:27;101004.88;;;18.48;100.00
20043;BME280;10182;52.896;6.496;2023-08-08T14:41:28;101007.16;;;18.65;100.00
20043;BME280;10182;52.896;6.496;2023-08-08T14:46:31;101028.72;;;18.64;100.00
20043;BME280;10182;52.896;6.496;2023-08-08T14:51:34;101026.31;;;18.36;100.00
20043;BME280;10182;52.896;6.496;2023-08-08T14:56:36;101014.19;;;18.19;100.00
20043;BME280;10182;52.896;6.496;2023-08-08T15:01:39;101009.69;;;17.70;100.00
20043;BME280;10182;52.896;6.496;2023-08-08T15:06:40;101031.78;;;18.10;100.00
20043;BME280;10182;52.896;6.496;2023-08-08T15:11:42;101026.25;;;18.01;100.00
20043;BME280;10182;52.896;6.496;2023-08-08T15:16:51;101036.38;;;17.71;100.00
20043;BME280;10182;52.896;6.496;2023-08-08T15:21:54;101039.56;;;17.76;100.00
20043;BME280;10182;52.896;6.496;2023-08-08T15:26:55;101031.16;;;18.07;100.00
20043;BME280;10182;52.896;6.496;2023-08-08T15:31:58;101040.47;;;18.14;100.00
20043;BME280;10182;52.896;6.496;2023-08-08T15:37:00;101045.94;;;17.63;100.00
20043;BME280;10182;52.896;6.496;2023-08-08T15:42:02;101049.06;;;17.18;100.00
20043;BME280;10182;52.896;6.496;2023-08-08T15:47:05;101050.88;;;16.91;100.00
20043;BME280;10182;52.896;6.496;2023-08-08T15:52:08;101057.41;;;17.00;100.00
20043;BME280;10182;52.896;6.496;2023-08-08T15:57:10;101060.00;;;17.15;100.00
20043;BME280;10182;52.896;6.496;2023-08-08T16:02:13;101065.88;;;16.94;100.00
20043;BME280;10182;52.896;6.496;2023-08-08T16:07:15;101064.81;;;16.97;100.00
20043;BME280;10182;52.896;6.496;2023-08-08T16:12:18;101062.97;;;16.97;100.00
20043;BME280;10182;52.896;6.496;2023-08-08T16:17:22;101063.34;;;16.78;100.00
20043;BME280;10182;52.896;6.496;2023-08-08T16:22:23;101067.13;;;16.88;100.00
20043;BME280;10182;52.896;6.496;2023-08-08T16:27:25;101066.94;;;16.64;100.00
20043;BME280;10182;52.896;6.496;2023-08-08T16:32:28;101067.22;;;16.47;100.00
20043;BME280;10182;52.896;6.496;2023-08-08T16:37:30;101065.22;;;16.50;100.00
20043;BME280;10182;52.896;6.496;2023-08-08T16:42:32;101067.91;;;16.63;100.00
20043;BME280;10182;52.896;6.496;2023-08-08T16:47:35;101063.13;;;16.81;100.00
20043;BME280;10182;52.896;6.496;2023-08-08T16:52:37;101073.31;;;16.76;100.00
20043;BME280;10182;52.896;6.496;2023-08-08T16:57:39;101063.44;;;16.77;100.00
20043;BME280;10182;52.896;6.496;2023-08-08T17:02:42;101061.50;;;16.66;100.00
20043;BME280;10182;52.896;6.496;2023-08-08T17:07:44;101063.44;;;16.64;100.00
20043;BME280;10182;52.896;6.496;2023-08-08T17:12:46;101060.53;;;16.54;100.00
20043;BME280;10182;52.896;6.496;2023-08-08T17:17:49;101060.47;;;16.41;100.00
20043;BME280;10182;52.896;6.496;2023-08-08T17:22:51;101066.59;;;16.43;100.00
20043;BME280;10182;52.896;6.496;2023-08-08T17:27:52;101054.22;;;16.28;100.00
20043;BME280;10182;52.896;6.496;2023-08-08T17:32:56;101064.78;;;16.29;100.00
20043;BME280;10182;52.896;6.496;2023-08-08T17:37:57;101066.06;;;16.23;100.00
20043;BME280;10182;52.896;6.496;2023-08-08T17:42:59;101061.13;;;16.17;100.00
20043;BME280;10182;52.896;6.496;2023-08-08T17:48:03;101057.91;;;16.12;100.00
20043;BME280;10182;52.896;6.496;2023-08-08T17:53:05;101053.25;;;16.01;100.00
20043;BME280;10182;52.896;6.496;2023-08-08T17:58:07;101052.88;;;15.93;100.00
20043;BME280;10182;52.896;6.496;2023-08-08T18:03:10;101055.63;;;15.77;100.00
20043;BME280;10182;52.896;6.496;2023-08-08T18:08:12;101047.16;;;15.70;100.00
20043;BME280;10182;52.896;6.496;2023-08-08T18:13:14;101052.63;;;15.54;100.00
20043;BME280;10182;52.896;6.496;2023-08-08T18:18:17;101049.84;;;15.42;100.00
20043;BME280;10182;52.896;6.496;2023-08-08T18:23:19;101049.84;;;15.42;100.00
20043;BME280;10182;52.896;6.496;2023-08-08T18:28:22;101060.81;;;15.37;100.00
20043;BME280;10182;52.896;6.496;2023-08-08T18:33:26;101059.19;;;15.20;100.00
20043;BME280;10182;52.896;6.496;2023-08-08T18:38:27;101050.72;;;15.13;100.00
20043;BME280;10182;52.896;6.496;2023-08-08T18:43:29;101049.56;;;15.17;100.00
20043;BME280;10182;52.896;6.496;2023-08-08T18:48:32;101037.38;;;15.13;100.00
20043;BME280;10182;52.896;6.496;2023-08-08T18:53:34;101041.72;;;15.14;100.00
20043;BME280;10182;52.896;6.496;2023-08-08T18:58:36;101032.59;;;15.04;100.00
20043;BME280;10182;52.896;6.496;2023-08-08T19:03:40;101034.19;;;14.92;100.00
20043;BME280;10182;52.896;6.496;2023-08-08T19:08:42;101032.75;;;14.86;100.00
20043;BME280;10182;52.896;6.496;2023-08-08T19:13:44;101025.47;;;14.74;100.00
20043;BME280;10182;52.896;6.496;2023-08-08T19:18:47;101035.13;;;14.61;100.00
20043;BME280;10182;52.896;6.496;2023-08-08T19:23:48;101030.94;;;14.41;100.00
20043;BME280;10182;52.896;6.496;2023-08-08T19:28:50;101029.38;;;14.22;100.00
20043;BME280;10182;52.896;6.496;2023-08-08T19:33:53;101035.72;;;14.03;100.00
20043;BME280;10182;52.896;6.496;2023-08-08T19:38:55;101031.00;;;13.93;100.00
20043;BME280;10182;52.896;6.496;2023-08-08T19:43:57;101031.78;;;13.79;100.00
20043;BME280;10182;52.896;6.496;2023-08-08T19:49:00;101030.16;;;13.76;100.00
20043;BME280;10182;52.896;6.496;2023-08-08T19:54:02;101030.81;;;13.64;100.00
20043;BME280;10182;52.896;6.496;2023-08-08T19:59:04;101040.19;;;13.55;100.00
20043;BME280;10182;52.896;6.496;2023-08-08T20:04:07;101043.16;;;13.49;100.00
20043;BME280;10182;52.896;6.496;2023-08-08T20:09:09;101048.13;;;13.39;100.00
20043;BME280;10182;52.896;6.496;2023-08-08T20:14:15;101052.78;;;13.34;100.00
20043;BME280;10182;52.896;6.496;2023-08-08T20:19:18;101049.38;;;13.32;100.00
20043;BME280;10182;52.896;6.496;2023-08-08T20:24:20;101060.25;;;13.45;100.00
20043;BME280;10182;52.896;6.496;2023-08-08T20:29:21;101060.31;;;13.43;100.00
20043;BME280;10182;52.896;6.496;2023-08-08T20:34:24;101046.25;;;13.41;100.00
20043;BME280;10182;52.896;6.496;2023-08-08T20:39:30;101043.69;;;13.40;100.00
20043;BME280;10182;52.896;6.496;2023-08-08T20:44:32;101050.03;;;13.37;100.00
20043;BME280;10182;52.896;6.496;2023-08-08T20:49:35;101058.94;;;13.36;100.00
20043;BME280;10182;52.896;6.496;2023-08-08T20:54:36;101060.88;;;13.32;100.00
20043;BME280;10182;52.896;6.496;2023-08-08T20:59:38;101065.16;;;13.35;100.00
20043;BME280;10182;52.896;6.496;2023-08-08T21:04:42;101048.44;;;13.33;100.00
20043;BME280;10182;52.896;6.496;2023-08-08T21:09:45;101040.53;;;13.31;100.00
20043;BME280;10182;52.896;6.496;2023-08-08T21:14:47;101047.28;;;13.21;100.00
20043;BME280;10182;52.896;6.496;2023-08-08T21:19:50;101053.78;;;13.15;100.00
20043;BME280;10182;52.896;6.496;2023-08-08T21:24:53;101049.56;;;13.11;100.00
20043;BME280;10182;52.896;6.496;2023-08-08T21:29:54;101042.78;;;13.06;100.00
20043;BME280;10182;52.896;6.496;2023-08-08T21:34:57;101049.13;;;13.03;100.00
20043;BME280;10182;52.896;6.496;2023-08-08T21:39:59;101041.34;;;12.98;100.00
20043;BME280;10182;52.896;6.496;2023-08-08T21:45:01;101043.81;;;12.85;100.00
20043;BME280;10182;52.896;6.496;2023-08-08T21:50:05;101039.03;;;12.75;100.00
20043;BME280;10182;52.896;6.496;2023-08-08T21:55:07;101046.25;;;12.73;100.00
20043;BME280;10182;52.896;6.496;2023-08-08T22:00:10;101042.03;;;12.68;100.00
20043;BME280;10182;52.896;6.496;2023-08-08T22:05:15;101049.44;;;12.62;100.00
20043;BME280;10182;52.896;6.496;2023-08-08T22:10:17;101047.97;;;12.56;100.00
20043;BME280;10182;52.896;6.496;2023-08-08T22:15:18;101048.25;;;12.50;100.00
20043;BME280;10182;52.896;6.496;2023-08-08T22:20:22;101058.16;;;12.46;100.00
20043;BME280;10182;52.896;6.496;2023-08-08T22:25:23;101050.44;;;12.42;100.00
20043;BME280;10182;52.896;6.496;2023-08-08T22:30:25;101058.56;;;12.39;100.00
20043;BME280;10182;52.896;6.496;2023-08-08T22:35:28;101064.72;;;12.39;100.00
20043;BME280;10182;52.896;6.496;2023-08-08T22:40:30;101073.63;;;12.38;100.00
20043;BME280;10182;52.896;6.496;2023-08-08T22:45:34;101077.28;;;12.35;100.00
20043;BME280;10182;52.896;6.496;2023-08-08T22:50:37;101070.78;;;12.24;100.00
20043;BME280;10182;52.896;6.496;2023-08-08T22:55:41;101069.13;;;12.21;100.00
20043;BME280;10182;52.896;6.496;2023-08-08T23:00:42;101072.72;;;12.20;100.00
20043;BME280;10182;52.896;6.496;2023-08-08T23:05:45;101078.19;;;12.17;100.00
20043;BME280;10182;52.896;6.496;2023-08-08T23:10:47;101069.72;;;12.09;100.00
20043;BME280;10182;52.896;6.496;2023-08-08T23:15:49;101067.22;;;12.06;100.00
20043;BME280;10182;52.896;6.496;2023-08-08T23:20:52;101078.63;;;12.08;100.00
20043;BME280;10182;52.896;6.496;2023-08-08T23:25:54;101075.19;;;12.06;100.00
20043;BME280;10182;52.896;6.496;2023-08-08T23:30:56;101070.81;;;12.05;100.00
20043;BME280;10182;52.896;6.496;2023-08-08T23:35:59;101079.47;;;12.08;100.00
20043;BME280;10182;52.896;6.496;2023-08-08T23:41:01;101080.44;;;12.07;100.00
20043;BME280;10182;52.896;6.496;2023-08-08T23:46:03;101080.53;;;12.04;100.00
20043;BME280;10182;52.896;6.496;2023-08-08T23:51:06;101088.66;;;12.01;100.00
20043;BME280;10182;52.896;6.496;2023-08-08T23:56:08;101088.81;;;11.98;100.00
